sensor_id;sensor_type;location;lat;lon;timestamp;temperature;humidity
32095;DHT22;18608;53.688;10.748;2022-08-06T00:01:40;12.60;99.90
32095;DHT22;18608;53.688;10.748;2022-08-06T00:04:06;12.50;99.90
32095;DHT22;18608;53.688;10.748;2022-08-06T00:06:32;12.50;99.90
32095;DHT22;18608;53.688;10.748;2022-08-06T00:08:57;12.50;99.90
32095;DHT22;18608;53.688;10.748;2022-08-06T00:11:23;12.50;99.90
32095;DHT22;18608;53.688;10.748;2022-08-06T00:13:48;12.40;99.90
32095;DHT22;18608;53.688;10.748;2022-08-06T00:16:14;12.20;99.90
32095;DHT22;18608;53.688;10.748;2022-08-06T00:18:40;12.10;99.90
32095;DHT22;18608;53.688;10.748;2022-08-06T00:21:05;12.00;99.90
32095;DHT22;18608;53.688;10.748;2022-08-06T00:23:31;12.00;99.90
32095;DHT22;18608;53.688;10.748;2022-08-06T00:25:56;11.90;99.90
32095;DHT22;18608;53.688;10.748;2022-08-06T00:28:24;11.80;99.90
32095;DHT22;18608;53.688;10.748;2022-08-06T00:30:50;11.80;99.90
32095;DHT22;18608;53.688;10.748;2022-08-06T00:33:16;11.80;99.90
32095;DHT22;18608;53.688;10.748;2022-08-06T00:35:42;11.10;99.90
32095;DHT22;18608;53.688;10.748;2022-08-06T00:38:08;11.80;99.90
32095;DHT22;18608;53.688;10.748;2022-08-06T00:40:34;11.80;99.90
32095;DHT22;18608;53.688;10.748;2022-08-06T00:43:02;11.80;99.90
32095;DHT22;18608;53.688;10.748;2022-08-06T00:45:32;11.80;99.90
32095;DHT22;18608;53.688;10.748;2022-08-06T00:47:59;11.90;99.90
32095;DHT22;18608;53.688;10.748;2022-08-06T00:50:25;11.90;99.90
32095;DHT22;18608;53.688;10.748;2022-08-06T00:52:50;11.90;99.90
32095;DHT22;18608;53.688;10.748;2022-08-06T00:55:16;11.90;99.90
32095;DHT22;18608;53.688;10.748;2022-08-06T00:57:42;11.90;99.90
32095;DHT22;18608;53.688;10.748;2022-08-06T01:00:08;11.90;99.90
32095;DHT22;18608;53.688;10.748;2022-08-06T01:02:34;11.90;99.90
32095;DHT22;18608;53.688;10.748;2022-08-06T01:05:00;11.90;99.90
32095;DHT22;18608;53.688;10.748;2022-08-06T01:07:26;12.00;99.90
32095;DHT22;18608;53.688;10.748;2022-08-06T01:09:51;12.00;99.90
32095;DHT22;18608;53.688;10.748;2022-08-06T01:12:17;11.90;99.90
32095;DHT22;18608;53.688;10.748;2022-08-06T01:14:43;11.90;99.90
32095;DHT22;18608;53.688;10.748;2022-08-06T01:17:19;11.90;99.90
32095;DHT22;18608;53.688;10.748;2022-08-06T01:19:48;11.80;99.90
32095;DHT22;18608;53.688;10.748;2022-08-06T01:25:09;11.80;99.90
32095;DHT22;18608;53.688;10.748;2022-08-06T01:28:12;11.80;99.90
32095;DHT22;18608;53.688;10.748;2022-08-06T01:30:35;11.80;99.90
32095;DHT22;18608;53.688;10.748;2022-08-06T01:33:09;11.70;99.90
32095;DHT22;18608;53.688;10.748;2022-08-06T01:35:41;11.70;99.90
32095;DHT22;18608;53.688;10.748;2022-08-06T01:38:12;11.70;99.90
32095;DHT22;18608;53.688;10.748;2022-08-06T01:40:40;11.60;99.90
32095;DHT22;18608;53.688;10.748;2022-08-06T01:43:09;11.60;99.90
32095;DHT22;18608;53.688;10.748;2022-08-06T01:45:38;11.60;99.90
32095;DHT22;18608;53.688;10.748;2022-08-06T01:48:08;11.60;99.90
32095;DHT22;18608;53.688;10.748;2022-08-06T01:50:45;11.50;99.90
32095;DHT22;18608;53.688;10.748;2022-08-06T01:53:15;11.60;99.90
32095;DHT22;18608;53.688;10.748;2022-08-06T01:55:43;11.50;99.90
32095;DHT22;18608;53.688;10.748;2022-08-06T01:58:10;11.50;99.90
32095;DHT22;18608;53.688;10.748;2022-08-06T02:00:40;11.40;99.90
32095;DHT22;18608;53.688;10.748;2022-08-06T02:03:12;11.40;99.90
32095;DHT22;18608;53.688;10.748;2022-08-06T02:05:39;11.50;99.90
32095;DHT22;18608;53.688;10.748;2022-08-06T02:08:08;11.50;99.90
32095;DHT22;18608;53.688;10.748;2022-08-06T02:10:35;11.50;99.90
32095;DHT22;18608;53.688;10.748;2022-08-06T02:13:02;11.50;99.90
32095;DHT22;18608;53.688;10.748;2022-08-06T02:15:29;11.40;99.90
32095;DHT22;18608;53.688;10.748;2022-08-06T02:17:58;11.30;99.90
32095;DHT22;18608;53.688;10.748;2022-08-06T02:20:32;11.30;99.90
32095;DHT22;18608;53.688;10.748;2022-08-06T02:22:59;11.30;99.90
32095;DHT22;18608;53.688;10.748;2022-08-06T02:25:27;11.20;99.90
32095;DHT22;18608;53.688;10.748;2022-08-06T02:27:55;11.20;99.90
32095;DHT22;18608;53.688;10.748;2022-08-06T02:30:23;11.20;99.90
32095;DHT22;18608;53.688;10.748;2022-08-06T02:32:49;11.20;99.90
32095;DHT22;18608;53.688;10.748;2022-08-06T02:35:15;11.20;99.90
32095;DHT22;18608;53.688;10.748;2022-08-06T02:37:46;11.10;99.90
32095;DHT22;18608;53.688;10.748;2022-08-06T02:40:26;11.10;99.90
32095;DHT22;18608;53.688;10.748;2022-08-06T02:43:04;11.10;99.90
32095;DHT22;18608;53.688;10.748;2022-08-06T02:45:43;11.10;99.90
32095;DHT22;18608;53.688;10.748;2022-08-06T02:48:38;11.00;99.90
32095;DHT22;18608;53.688;10.748;2022-08-06T02:51:10;11.00;99.90
32095;DHT22;18608;53.688;10.748;2022-08-06T02:53:51;11.00;99.90
32095;DHT22;18608;53.688;10.748;2022-08-06T02:56:21;11.00;99.90
32095;DHT22;18608;53.688;10.748;2022-08-06T02:58:49;11.00;99.90
32095;DHT22;18608;53.688;10.748;2022-08-06T03:01:23;10.90;99.90
32095;DHT22;18608;53.688;10.748;2022-08-06T03:03:52;10.90;99.90
32095;DHT22;18608;53.688;10.748;2022-08-06T03:06:20;10.90;99.90
32095;DHT22;18608;53.688;10.748;2022-08-06T03:08:51;10.90;99.90
32095;DHT22;18608;53.688;10.748;2022-08-06T03:11:17;10.90;99.90
32095;DHT22;18608;53.688;10.748;2022-08-06T03:13:44;10.90;99.90
32095;DHT22;18608;53.688;10.748;2022-08-06T03:16:11;10.90;99.90
32095;DHT22;18608;53.688;10.748;2022-08-06T03:18:37;10.90;99.90
32095;DHT22;18608;53.688;10.748;2022-08-06T03:21:04;10.90;99.90
32095;DHT22;18608;53.688;10.748;2022-08-06T03:23:31;10.90;99.90
32095;DHT22;18608;53.688;10.748;2022-08-06T03:25:57;10.90;99.90
32095;DHT22;18608;53.688;10.748;2022-08-06T03:28:24;10.90;99.90
32095;DHT22;18608;53.688;10.748;2022-08-06T03:30:51;10.90;99.90
32095;DHT22;18608;53.688;10.748;2022-08-06T03:33:18;10.80;99.90
32095;DHT22;18608;53.688;10.748;2022-08-06T03:35:45;10.80;99.90
32095;DHT22;18608;53.688;10.748;2022-08-06T03:38:12;10.80;99.90
32095;DHT22;18608;53.688;10.748;2022-08-06T03:40:42;10.80;99.90
32095;DHT22;18608;53.688;10.748;2022-08-06T03:43:08;10.80;99.90
32095;DHT22;18608;53.688;10.748;2022-08-06T03:45:38;10.80;99.90
32095;DHT22;18608;53.688;10.748;2022-08-06T03:48:06;10.80;99.90
32095;DHT22;18608;53.688;10.748;2022-08-06T03:50:36;10.80;99.90
32095;DHT22;18608;53.688;10.748;2022-08-06T03:53:08;10.80;99.90
32095;DHT22;18608;53.688;10.748;2022-08-06T03:55:37;10.80;99.90
32095;DHT22;18608;53.688;10.748;2022-08-06T03:58:11;10.90;99.90
32095;DHT22;18608;53.688;10.748;2022-08-06T04:00:44;10.90;99.90
32095;DHT22;18608;53.688;10.748;2022-08-06T04:03:12;10.80;99.90
32095;DHT22;18608;53.688;10.748;2022-08-06T04:05:40;10.90;99.90
32095;DHT22;18608;53.688;10.748;2022-08-06T04:08:07;11.00;99.90
32095;DHT22;18608;53.688;10.748;2022-08-06T04:10:45;10.90;99.90
32095;DHT22;18608;53.688;10.748;2022-08-06T04:13:17;10.80;99.90
32095;DHT22;18608;53.688;10.748;2022-08-06T04:15:43;10.80;99.90
32095;DHT22;18608;53.688;10.748;2022-08-06T04:18:32;10.80;99.90
32095;DHT22;18608;53.688;10.748;2022-08-06T04:21:01;10.80;99.90
32095;DHT22;18608;53.688;10.748;2022-08-06T04:23:27;10.80;99.90
32095;DHT22;18608;53.688;10.748;2022-08-06T04:25:57;10.80;99.90
32095;DHT22;18608;53.688;10.748;2022-08-06T04:28:26;10.90;99.90
32095;DHT22;18608;53.688;10.748;2022-08-06T04:30:53;11.00;99.90
32095;DHT22;18608;53.688;10.748;2022-08-06T04:33:21;11.10;99.90
32095;DHT22;18608;53.688;10.748;2022-08-06T04:35:48;11.20;99.90
32095;DHT22;18608;53.688;10.748;2022-08-06T04:38:16;11.30;99.90
32095;DHT22;18608;53.688;10.748;2022-08-06T04:40:42;11.50;99.90
32095;DHT22;18608;53.688;10.748;2022-08-06T04:43:11;11.60;99.90
32095;DHT22;18608;53.688;10.748;2022-08-06T04:45:39;11.70;99.90
32095;DHT22;18608;53.688;10.748;2022-08-06T04:48:08;11.90;99.90
32095;DHT22;18608;53.688;10.748;2022-08-06T04:50:35;12.20;99.90
32095;DHT22;18608;53.688;10.748;2022-08-06T04:55:31;12.60;99.90
32095;DHT22;18608;53.688;10.748;2022-08-06T04:57:57;12.60;99.90
32095;DHT22;18608;53.688;10.748;2022-08-06T05:00:22;12.80;99.90
32095;DHT22;18608;53.688;10.748;2022-08-06T05:02:48;12.90;99.90
32095;DHT22;18608;53.688;10.748;2022-08-06T05:05:14;13.10;99.90
32095;DHT22;18608;53.688;10.748;2022-08-06T05:07:43;13.30;99.90
32095;DHT22;18608;53.688;10.748;2022-08-06T05:10:10;13.40;99.90
32095;DHT22;18608;53.688;10.748;2022-08-06T05:12:38;13.50;99.90
32095;DHT22;18608;53.688;10.748;2022-08-06T05:15:16;13.60;99.90
32095;DHT22;18608;53.688;10.748;2022-08-06T05:17:51;13.70;99.90
32095;DHT22;18608;53.688;10.748;2022-08-06T05:20:19;13.70;99.90
32095;DHT22;18608;53.688;10.748;2022-08-06T05:22:49;13.80;99.90
32095;DHT22;18608;53.688;10.748;2022-08-06T05:25:17;13.90;99.90
32095;DHT22;18608;53.688;10.748;2022-08-06T05:27:43;13.90;99.90
32095;DHT22;18608;53.688;10.748;2022-08-06T05:30:09;14.00;99.90
32095;DHT22;18608;53.688;10.748;2022-08-06T05:32:47;14.30;99.90
32095;DHT22;18608;53.688;10.748;2022-08-06T05:35:13;14.40;99.90
32095;DHT22;18608;53.688;10.748;2022-08-06T05:37:40;14.80;99.90
32095;DHT22;18608;53.688;10.748;2022-08-06T05:40:07;14.90;99.90
32095;DHT22;18608;53.688;10.748;2022-08-06T05:42:33;15.10;99.90
32095;DHT22;18608;53.688;10.748;2022-08-06T05:47:27;14.80;99.90
32095;DHT22;18608;53.688;10.748;2022-08-06T05:50:06;14.60;99.90
32095;DHT22;18608;53.688;10.748;2022-08-06T05:52:50;14.70;99.90
32095;DHT22;18608;53.688;10.748;2022-08-06T05:55:26;14.90;99.90
32095;DHT22;18608;53.688;10.748;2022-08-06T05:57:59;15.30;99.90
32095;DHT22;18608;53.688;10.748;2022-08-06T06:00:28;15.70;99.90
32095;DHT22;18608;53.688;10.748;2022-08-06T06:02:58;15.70;99.90
32095;DHT22;18608;53.688;10.748;2022-08-06T06:05:25;15.80;99.90
32095;DHT22;18608;53.688;10.748;2022-08-06T06:07:51;16.10;99.90
32095;DHT22;18608;53.688;10.748;2022-08-06T06:10:18;16.00;99.90
32095;DHT22;18608;53.688;10.748;2022-08-06T06:12:45;15.90;99.90
32095;DHT22;18608;53.688;10.748;2022-08-06T06:15:14;15.90;99.90
32095;DHT22;18608;53.688;10.748;2022-08-06T06:23:23;16.70;99.90
32095;DHT22;18608;53.688;10.748;2022-08-06T06:29:11;16.60;99.90
32095;DHT22;18608;53.688;10.748;2022-08-06T06:34:20;16.90;99.90
32095;DHT22;18608;53.688;10.748;2022-08-06T06:39:26;17.30;99.90
32095;DHT22;18608;53.688;10.748;2022-08-06T06:44:42;17.50;99.90
32095;DHT22;18608;53.688;10.748;2022-08-06T06:47:22;17.30;99.90
32095;DHT22;18608;53.688;10.748;2022-08-06T06:50:05;17.60;99.90
32095;DHT22;18608;53.688;10.748;2022-08-06T06:52:42;17.70;99.90
32095;DHT22;18608;53.688;10.748;2022-08-06T06:55:17;18.10;99.90
32095;DHT22;18608;53.688;10.748;2022-08-06T06:57:47;18.40;99.90
32095;DHT22;18608;53.688;10.748;2022-08-06T07:02:41;17.80;99.90
32095;DHT22;18608;53.688;10.748;2022-08-06T07:05:10;17.80;99.90
32095;DHT22;18608;53.688;10.748;2022-08-06T07:07:39;17.70;99.90
32095;DHT22;18608;53.688;10.748;2022-08-06T07:10:08;18.00;99.90
32095;DHT22;18608;53.688;10.748;2022-08-06T07:12:34;18.20;99.90
32095;DHT22;18608;53.688;10.748;2022-08-06T07:15:05;18.10;99.90
32095;DHT22;18608;53.688;10.748;2022-08-06T07:17:33;18.80;99.90
32095;DHT22;18608;53.688;10.748;2022-08-06T07:20:04;18.70;99.90
32095;DHT22;18608;53.688;10.748;2022-08-06T07:22:30;18.80;99.90
32095;DHT22;18608;53.688;10.748;2022-08-06T07:24:59;18.20;99.90
32095;DHT22;18608;53.688;10.748;2022-08-06T07:27:30;17.70;99.90
32095;DHT22;18608;53.688;10.748;2022-08-06T07:29:58;17.70;99.90
32095;DHT22;18608;53.688;10.748;2022-08-06T07:32:25;18.00;99.90
32095;DHT22;18608;53.688;10.748;2022-08-06T07:34:52;18.70;99.90
32095;DHT22;18608;53.688;10.748;2022-08-06T07:37:18;18.90;99.90
32095;DHT22;18608;53.688;10.748;2022-08-06T07:39:47;19.10;99.90
32095;DHT22;18608;53.688;10.748;2022-08-06T07:42:15;19.10;99.90
32095;DHT22;18608;53.688;10.748;2022-08-06T07:44:48;18.70;99.90
32095;DHT22;18608;53.688;10.748;2022-08-06T07:47:20;18.90;99.90
32095;DHT22;18608;53.688;10.748;2022-08-06T07:49:52;18.90;62.20
32095;DHT22;18608;53.688;10.748;2022-08-06T07:52:19;19.10;59.40
32095;DHT22;18608;53.688;10.748;2022-08-06T07:54:46;18.90;66.30
32095;DHT22;18608;53.688;10.748;2022-08-06T07:57:13;19.00;91.90
32095;DHT22;18608;53.688;10.748;2022-08-06T08:02:07;20.30;36.30
32095;DHT22;18608;53.688;10.748;2022-08-06T08:04:34;20.20;62.30
32095;DHT22;18608;53.688;10.748;2022-08-06T08:07:20;20.30;52.50
32095;DHT22;18608;53.688;10.748;2022-08-06T08:09:47;20.00;49.60
32095;DHT22;18608;53.688;10.748;2022-08-06T08:12:15;19.70;57.20
32095;DHT22;18608;53.688;10.748;2022-08-06T08:14:43;20.20;50.90
32095;DHT22;18608;53.688;10.748;2022-08-06T08:22:12;19.30;81.30
32095;DHT22;18608;53.688;10.748;2022-08-06T08:24:40;19.30;81.00
32095;DHT22;18608;53.688;10.748;2022-08-06T08:27:07;18.90;80.40
32095;DHT22;18608;53.688;10.748;2022-08-06T08:29:39;19.90;69.10
32095;DHT22;18608;53.688;10.748;2022-08-06T08:32:06;20.40;26.90
32095;DHT22;18608;53.688;10.748;2022-08-06T08:42:02;19.90;12.10
32095;DHT22;18608;53.688;10.748;2022-08-06T08:44:32;20.40;28.00
32095;DHT22;18608;53.688;10.748;2022-08-06T08:54:22;20.60;1.00
32095;DHT22;18608;53.688;10.748;2022-08-06T08:56:49;21.20;1.00
32095;DHT22;18608;53.688;10.748;2022-08-06T08:59:15;21.30;1.00
32095;DHT22;18608;53.688;10.748;2022-08-06T09:01:42;21.10;1.00
32095;DHT22;18608;53.688;10.748;2022-08-06T09:06:36;21.00;1.00
32095;DHT22;18608;53.688;10.748;2022-08-06T09:09:03;21.40;1.00
32095;DHT22;18608;53.688;10.748;2022-08-06T09:11:33;21.10;1.00
32095;DHT22;18608;53.688;10.748;2022-08-06T09:14:03;20.70;1.00
32095;DHT22;18608;53.688;10.748;2022-08-06T09:16:31;20.80;1.00
32095;DHT22;18608;53.688;10.748;2022-08-06T09:26:16;21.10;1.00
32095;DHT22;18608;53.688;10.748;2022-08-06T09:28:43;20.90;99.90
32095;DHT22;18608;53.688;10.748;2022-08-06T09:33:39;20.80;99.90
32095;DHT22;18608;53.688;10.748;2022-08-06T09:36:07;21.10;99.90
32095;DHT22;18608;53.688;10.748;2022-08-06T09:38:54;21.00;99.90
32095;DHT22;18608;53.688;10.748;2022-08-06T09:41:22;21.20;99.90
32095;DHT22;18608;53.688;10.748;2022-08-06T09:43:50;21.20;99.90
32095;DHT22;18608;53.688;10.748;2022-08-06T09:46:17;21.30;99.90
32095;DHT22;18608;53.688;10.748;2022-08-06T09:49:00;20.60;99.90
32095;DHT22;18608;53.688;10.748;2022-08-06T09:51:27;21.00;99.90
32095;DHT22;18608;53.688;10.748;2022-08-06T09:53:54;21.50;99.90
32095;DHT22;18608;53.688;10.748;2022-08-06T09:56:20;21.60;99.90
32095;DHT22;18608;53.688;10.748;2022-08-06T09:58:47;21.10;99.90
32095;DHT22;18608;53.688;10.748;2022-08-06T10:01:21;20.30;99.90
32095;DHT22;18608;53.688;10.748;2022-08-06T10:03:48;20.00;99.90
32095;DHT22;18608;53.688;10.748;2022-08-06T10:06:16;20.20;99.90
32095;DHT22;18608;53.688;10.748;2022-08-06T10:08:46;20.10;99.90
32095;DHT22;18608;53.688;10.748;2022-08-06T10:11:12;20.50;99.90
32095;DHT22;18608;53.688;10.748;2022-08-06T10:13:38;20.20;99.90
32095;DHT22;18608;53.688;10.748;2022-08-06T10:16:22;19.80;99.90
32095;DHT22;18608;53.688;10.748;2022-08-06T10:18:52;19.80;99.90
32095;DHT22;18608;53.688;10.748;2022-08-06T10:21:20;20.10;99.90
32095;DHT22;18608;53.688;10.748;2022-08-06T10:23:50;20.10;99.90
32095;DHT22;18608;53.688;10.748;2022-08-06T10:26:31;19.60;99.90
32095;DHT22;18608;53.688;10.748;2022-08-06T10:29:05;19.50;99.90
32095;DHT22;18608;53.688;10.748;2022-08-06T10:31:33;19.40;99.90
32095;DHT22;18608;53.688;10.748;2022-08-06T10:34:13;19.20;99.90
32095;DHT22;18608;53.688;10.748;2022-08-06T10:36:44;19.00;99.90
32095;DHT22;18608;53.688;10.748;2022-08-06T10:39:10;18.70;35.10
32095;DHT22;18608;53.688;10.748;2022-08-06T10:41:38;18.40;45.70
32095;DHT22;18608;53.688;10.748;2022-08-06T10:44:06;18.20;81.70
32095;DHT22;18608;53.688;10.748;2022-08-06T10:46:32;18.10;97.40
32095;DHT22;18608;53.688;10.748;2022-08-06T10:48:58;17.90;99.90
32095;DHT22;18608;53.688;10.748;2022-08-06T10:51:24;17.60;99.90
32095;DHT22;18608;53.688;10.748;2022-08-06T10:53:52;17.70;99.90
32095;DHT22;18608;53.688;10.748;2022-08-06T10:56:19;17.70;99.90
32095;DHT22;18608;53.688;10.748;2022-08-06T10:58:45;17.70;99.90
32095;DHT22;18608;53.688;10.748;2022-08-06T11:01:31;17.80;99.90
32095;DHT22;18608;53.688;10.748;2022-08-06T11:04:16;17.80;99.90
32095;DHT22;18608;53.688;10.748;2022-08-06T11:14:21;20.50;34.30
32095;DHT22;18608;53.688;10.748;2022-08-06T11:16:57;20.40;29.80
32095;DHT22;18608;53.688;10.748;2022-08-06T11:19:59;20.20;1.00
32095;DHT22;18608;53.688;10.748;2022-08-06T11:22:39;20.70;18.90
32095;DHT22;18608;53.688;10.748;2022-08-06T11:25:07;20.80;1.00
32095;DHT22;18608;53.688;10.748;2022-08-06T11:27:54;20.90;41.40
32095;DHT22;18608;53.688;10.748;2022-08-06T11:30:36;21.30;1.00
32095;DHT22;18608;53.688;10.748;2022-08-06T11:38:03;21.30;1.00
32095;DHT22;18608;53.688;10.748;2022-08-06T11:40:52;20.80;1.00
32095;DHT22;18608;53.688;10.748;2022-08-06T11:51:45;20.90;6.20
32095;DHT22;18608;53.688;10.748;2022-08-06T12:00:01;21.10;19.40
32095;DHT22;18608;53.688;10.748;2022-08-06T12:05:02;20.70;1.00
32095;DHT22;18608;53.688;10.748;2022-08-06T12:07:30;20.20;9.90
32095;DHT22;18608;53.688;10.748;2022-08-06T12:14:53;20.50;22.70
32095;DHT22;18608;53.688;10.748;2022-08-06T12:17:20;20.50;18.10
32095;DHT22;18608;53.688;10.748;2022-08-06T12:19:51;20.70;23.50
32095;DHT22;18608;53.688;10.748;2022-08-06T12:22:19;21.10;85.90
32095;DHT22;18608;53.688;10.748;2022-08-06T12:24:51;21.60;99.90
32095;DHT22;18608;53.688;10.748;2022-08-06T12:27:17;21.90;99.90
32095;DHT22;18608;53.688;10.748;2022-08-06T12:29:44;22.00;99.90
32095;DHT22;18608;53.688;10.748;2022-08-06T12:32:26;22.00;99.90
32095;DHT22;18608;53.688;10.748;2022-08-06T12:34:55;21.60;99.90
32095;DHT22;18608;53.688;10.748;2022-08-06T12:37:36;21.00;99.90
32095;DHT22;18608;53.688;10.748;2022-08-06T12:40:06;20.90;99.90
32095;DHT22;18608;53.688;10.748;2022-08-06T12:42:51;21.00;99.90
32095;DHT22;18608;53.688;10.748;2022-08-06T12:45:23;21.70;99.90
32095;DHT22;18608;53.688;10.748;2022-08-06T12:48:03;21.80;99.90
32095;DHT22;18608;53.688;10.748;2022-08-06T12:50:30;21.90;99.90
32095;DHT22;18608;53.688;10.748;2022-08-06T12:53:12;22.00;99.90
32095;DHT22;18608;53.688;10.748;2022-08-06T12:55:49;22.00;99.90
32095;DHT22;18608;53.688;10.748;2022-08-06T12:58:18;21.60;99.90
32095;DHT22;18608;53.688;10.748;2022-08-06T13:00:48;21.40;99.90
32095;DHT22;18608;53.688;10.748;2022-08-06T13:03:14;22.20;99.90
32095;DHT22;18608;53.688;10.748;2022-08-06T13:05:41;22.20;99.90
32095;DHT22;18608;53.688;10.748;2022-08-06T13:08:08;22.10;99.90
32095;DHT22;18608;53.688;10.748;2022-08-06T13:10:34;22.20;99.90
32095;DHT22;18608;53.688;10.748;2022-08-06T13:13:03;22.30;99.90
32095;DHT22;18608;53.688;10.748;2022-08-06T13:15:29;22.50;99.90
32095;DHT22;18608;53.688;10.748;2022-08-06T13:18:10;22.40;99.90
32095;DHT22;18608;53.688;10.748;2022-08-06T13:20:44;22.40;99.90
32095;DHT22;18608;53.688;10.748;2022-08-06T13:23:11;22.30;99.90
32095;DHT22;18608;53.688;10.748;2022-08-06T13:25:49;22.40;99.90
32095;DHT22;18608;53.688;10.748;2022-08-06T13:28:20;22.50;99.90
32095;DHT22;18608;53.688;10.748;2022-08-06T13:30:46;22.50;99.90
32095;DHT22;18608;53.688;10.748;2022-08-06T13:33:19;22.50;99.90
32095;DHT22;18608;53.688;10.748;2022-08-06T13:35:47;22.40;99.90
32095;DHT22;18608;53.688;10.748;2022-08-06T13:38:30;22.20;99.90
32095;DHT22;18608;53.688;10.748;2022-08-06T13:40:56;22.00;99.90
32095;DHT22;18608;53.688;10.748;2022-08-06T13:46:10;22.60;99.90
32095;DHT22;18608;53.688;10.748;2022-08-06T13:51:02;22.30;99.90
32095;DHT22;18608;53.688;10.748;2022-08-06T13:53:28;22.50;99.90
32095;DHT22;18608;53.688;10.748;2022-08-06T13:55:53;22.70;99.90
32095;DHT22;18608;53.688;10.748;2022-08-06T13:58:19;22.40;99.90
32095;DHT22;18608;53.688;10.748;2022-08-06T14:00:44;22.20;99.90
32095;DHT22;18608;53.688;10.748;2022-08-06T14:03:13;21.90;99.90
32095;DHT22;18608;53.688;10.748;2022-08-06T14:05:39;21.40;99.90
32095;DHT22;18608;53.688;10.748;2022-08-06T14:08:04;21.30;99.90
32095;DHT22;18608;53.688;10.748;2022-08-06T14:10:30;21.20;99.90
32095;DHT22;18608;53.688;10.748;2022-08-06T14:12:56;21.00;99.90
32095;DHT22;18608;53.688;10.748;2022-08-06T14:15:41;21.10;99.90
32095;DHT22;18608;53.688;10.748;2022-08-06T14:18:07;21.00;99.90
32095;DHT22;18608;53.688;10.748;2022-08-06T14:20:32;20.80;99.90
32095;DHT22;18608;53.688;10.748;2022-08-06T14:22:58;20.50;99.90
32095;DHT22;18608;53.688;10.748;2022-08-06T14:25:24;20.50;99.90
32095;DHT22;18608;53.688;10.748;2022-08-06T14:27:50;20.60;99.90
32095;DHT22;18608;53.688;10.748;2022-08-06T14:30:17;20.50;99.90
32095;DHT22;18608;53.688;10.748;2022-08-06T14:32:43;20.60;99.90
32095;DHT22;18608;53.688;10.748;2022-08-06T14:35:10;21.10;99.90
32095;DHT22;18608;53.688;10.748;2022-08-06T14:37:36;20.70;99.90
32095;DHT22;18608;53.688;10.748;2022-08-06T14:40:02;20.60;99.90
32095;DHT22;18608;53.688;10.748;2022-08-06T14:42:28;20.50;99.90
32095;DHT22;18608;53.688;10.748;2022-08-06T14:45:13;20.50;99.90
32095;DHT22;18608;53.688;10.748;2022-08-06T14:47:38;20.60;99.90
32095;DHT22;18608;53.688;10.748;2022-08-06T14:50:04;21.10;99.90
32095;DHT22;18608;53.688;10.748;2022-08-06T14:52:30;21.00;99.90
32095;DHT22;18608;53.688;10.748;2022-08-06T14:54:56;20.80;99.90
32095;DHT22;18608;53.688;10.748;2022-08-06T14:57:22;20.70;99.90
32095;DHT22;18608;53.688;10.748;2022-08-06T14:59:47;20.50;99.90
32095;DHT22;18608;53.688;10.748;2022-08-06T15:02:13;20.40;99.90
32095;DHT22;18608;53.688;10.748;2022-08-06T15:04:39;20.30;99.90
32095;DHT22;18608;53.688;10.748;2022-08-06T15:07:05;20.60;99.90
32095;DHT22;18608;53.688;10.748;2022-08-06T15:09:31;20.90;99.90
32095;DHT22;18608;53.688;10.748;2022-08-06T15:11:58;21.20;99.90
32095;DHT22;18608;53.688;10.748;2022-08-06T15:14:24;21.40;99.90
32095;DHT22;18608;53.688;10.748;2022-08-06T15:16:52;21.50;99.90
32095;DHT22;18608;53.688;10.748;2022-08-06T15:19:17;21.70;99.90
32095;DHT22;18608;53.688;10.748;2022-08-06T15:21:43;21.80;99.90
32095;DHT22;18608;53.688;10.748;2022-08-06T15:24:09;22.00;99.90
32095;DHT22;18608;53.688;10.748;2022-08-06T15:26:34;22.00;99.90
32095;DHT22;18608;53.688;10.748;2022-08-06T15:29:00;21.70;99.90
32095;DHT22;18608;53.688;10.748;2022-08-06T15:31:26;21.40;99.90
32095;DHT22;18608;53.688;10.748;2022-08-06T15:33:52;21.40;99.90
32095;DHT22;18608;53.688;10.748;2022-08-06T15:36:18;21.30;99.90
32095;DHT22;18608;53.688;10.748;2022-08-06T15:38:43;21.10;99.90
32095;DHT22;18608;53.688;10.748;2022-08-06T15:41:09;20.80;99.90
32095;DHT22;18608;53.688;10.748;2022-08-06T15:43:35;20.70;99.90
32095;DHT22;18608;53.688;10.748;2022-08-06T15:46:01;20.60;99.90
32095;DHT22;18608;53.688;10.748;2022-08-06T15:48:27;20.60;99.90
32095;DHT22;18608;53.688;10.748;2022-08-06T15:50:53;20.60;99.90
32095;DHT22;18608;53.688;10.748;2022-08-06T15:53:20;20.50;99.90
32095;DHT22;18608;53.688;10.748;2022-08-06T15:55:46;20.30;99.90
32095;DHT22;18608;53.688;10.748;2022-08-06T15:58:12;20.10;99.90
32095;DHT22;18608;53.688;10.748;2022-08-06T16:00:39;20.40;99.90
32095;DHT22;18608;53.688;10.748;2022-08-06T16:03:06;20.60;99.90
32095;DHT22;18608;53.688;10.748;2022-08-06T16:05:32;20.60;99.90
32095;DHT22;18608;53.688;10.748;2022-08-06T16:07:57;20.60;99.90
32095;DHT22;18608;53.688;10.748;2022-08-06T16:10:24;20.40;99.90
32095;DHT22;18608;53.688;10.748;2022-08-06T16:12:51;20.40;99.90
32095;DHT22;18608;53.688;10.748;2022-08-06T16:15:17;20.50;99.90
32095;DHT22;18608;53.688;10.748;2022-08-06T16:17:42;20.50;99.90
32095;DHT22;18608;53.688;10.748;2022-08-06T16:20:08;20.60;99.90
32095;DHT22;18608;53.688;10.748;2022-08-06T16:22:34;20.40;99.90
32095;DHT22;18608;53.688;10.748;2022-08-06T16:25:00;20.30;99.90
32095;DHT22;18608;53.688;10.748;2022-08-06T16:27:25;20.40;99.90
32095;DHT22;18608;53.688;10.748;2022-08-06T16:29:51;20.30;99.90
32095;DHT22;18608;53.688;10.748;2022-08-06T16:32:17;20.40;99.90
32095;DHT22;18608;53.688;10.748;2022-08-06T16:34:43;20.30;99.90
32095;DHT22;18608;53.688;10.748;2022-08-06T16:37:10;20.20;99.90
32095;DHT22;18608;53.688;10.748;2022-08-06T16:39:35;20.10;99.90
32095;DHT22;18608;53.688;10.748;2022-08-06T16:42:02;20.20;99.90
32095;DHT22;18608;53.688;10.748;2022-08-06T16:44:28;20.40;99.90
32095;DHT22;18608;53.688;10.748;2022-08-06T16:46:54;20.70;99.90
32095;DHT22;18608;53.688;10.748;2022-08-06T16:49:20;20.80;99.90
32095;DHT22;18608;53.688;10.748;2022-08-06T16:51:46;20.90;99.90
32095;DHT22;18608;53.688;10.748;2022-08-06T16:54:15;20.90;99.90
32095;DHT22;18608;53.688;10.748;2022-08-06T16:56:41;20.90;99.90
32095;DHT22;18608;53.688;10.748;2022-08-06T16:59:07;20.90;99.90
32095;DHT22;18608;53.688;10.748;2022-08-06T17:01:37;20.80;99.90
32095;DHT22;18608;53.688;10.748;2022-08-06T17:04:05;20.60;99.90
32095;DHT22;18608;53.688;10.748;2022-08-06T17:06:31;20.40;99.90
32095;DHT22;18608;53.688;10.748;2022-08-06T17:08:58;20.20;99.90
32095;DHT22;18608;53.688;10.748;2022-08-06T17:11:24;19.90;99.90